sensor_id;sensor_type;location;lat;lon;timestamp;P1;durP1;ratioP1;P2;durP2;ratioP2
66739;SDS011;53653;52.188;8.602;2023-04-29T00:00:45;55.13;;;23.13;;
66739;SDS011;53653;52.188;8.602;2023-04-29T00:03:11;55.13;;;21.95;;
66739;SDS011;53653;52.188;8.602;2023-04-29T00:05:36;61.10;;;23.30;;
66739;SDS011;53653;52.188;8.602;2023-04-29T00:08:02;55.67;;;22.37;;
66739;SDS011;53653;52.188;8.602;2023-04-29T00:10:28;55.47;;;21.03;;
66739;SDS011;53653;52.188;8.602;2023-04-29T00:12:53;59.03;;;21.70;;
66739;SDS011;53653;52.188;8.602;2023-04-29T00:15:19;54.80;;;20.50;;
66739;SDS011;53653;52.188;8.602;2023-04-29T00:17:44;60.07;;;21.20;;
66739;SDS011;53653;52.188;8.602;2023-04-29T00:20:10;57.77;;;22.30;;
66739;SDS011;53653;52.188;8.602;2023-04-29T00:22:36;54.08;;;21.40;;
66739;SDS011;53653;52.188;8.602;2023-04-29T00:25:03;57.72;;;21.85;;
66739;SDS011;53653;52.188;8.602;2023-04-29T00:27:29;58.58;;;22.23;;
66739;SDS011;53653;52.188;8.602;2023-04-29T00:29:55;55.90;;;22.85;;
66739;SDS011;53653;52.188;8.602;2023-04-29T00:32:21;56.50;;;21.47;;
66739;SDS011;53653;52.188;8.602;2023-04-29T00:34:47;57.97;;;22.80;;
66739;SDS011;53653;52.188;8.602;2023-04-29T00:37:12;57.92;;;22.58;;
66739;SDS011;53653;52.188;8.602;2023-04-29T00:39:38;58.03;;;22.33;;
66739;SDS011;53653;52.188;8.602;2023-04-29T00:42:03;58.30;;;23.07;;
66739;SDS011;53653;52.188;8.602;2023-04-29T00:44:29;58.50;;;24.13;;
66739;SDS011;53653;52.188;8.602;2023-04-29T00:46:55;59.90;;;24.08;;
66739;SDS011;53653;52.188;8.602;2023-04-29T00:49:21;58.83;;;23.47;;
66739;SDS011;53653;52.188;8.602;2023-04-29T00:51:47;59.17;;;22.25;;
66739;SDS011;53653;52.188;8.602;2023-04-29T00:54:12;57.40;;;22.70;;
66739;SDS011;53653;52.188;8.602;2023-04-29T00:56:38;61.80;;;23.70;;
66739;SDS011;53653;52.188;8.602;2023-04-29T00:59:05;55.63;;;23.15;;
66739;SDS011;53653;52.188;8.602;2023-04-29T01:01:33;64.30;;;23.92;;
66739;SDS011;53653;52.188;8.602;2023-04-29T01:03:59;59.85;;;22.90;;
66739;SDS011;53653;52.188;8.602;2023-04-29T01:12:07;66.22;;;23.58;;
66739;SDS011;53653;52.188;8.602;2023-04-29T01:14:39;65.38;;;23.17;;
66739;SDS011;53653;52.188;8.602;2023-04-29T01:17:14;63.47;;;23.48;;
66739;SDS011;53653;52.188;8.602;2023-04-29T01:19:46;70.47;;;24.80;;
66739;SDS011;53653;52.188;8.602;2023-04-29T01:22:14;68.90;;;23.63;;
66739;SDS011;53653;52.188;8.602;2023-04-29T01:24:42;73.68;;;24.42;;
66739;SDS011;53653;52.188;8.602;2023-04-29T01:38:27;65.72;;;22.85;;
66739;SDS011;53653;52.188;8.602;2023-04-29T01:43:46;67.03;;;24.48;;
66739;SDS011;53653;52.188;8.602;2023-04-29T01:46:19;62.87;;;23.07;;
66739;SDS011;53653;52.188;8.602;2023-04-29T01:48:45;63.83;;;23.08;;
66739;SDS011;53653;52.188;8.602;2023-04-29T01:51:11;60.65;;;22.60;;
66739;SDS011;53653;52.188;8.602;2023-04-29T01:53:38;58.55;;;21.42;;
66739;SDS011;53653;52.188;8.602;2023-04-29T01:56:06;56.00;;;20.63;;
66739;SDS011;53653;52.188;8.602;2023-04-29T01:58:51;56.15;;;20.65;;
66739;SDS011;53653;52.188;8.602;2023-04-29T02:01:31;58.30;;;20.23;;
66739;SDS011;53653;52.188;8.602;2023-04-29T02:03:57;54.17;;;20.13;;
66739;SDS011;53653;52.188;8.602;2023-04-29T02:06:23;54.50;;;18.35;;
66739;SDS011;53653;52.188;8.602;2023-04-29T02:08:54;51.38;;;19.33;;
66739;SDS011;53653;52.188;8.602;2023-04-29T02:11:19;51.47;;;19.67;;
66739;SDS011;53653;52.188;8.602;2023-04-29T02:13:45;50.70;;;18.38;;
66739;SDS011;53653;52.188;8.602;2023-04-29T02:16:13;46.17;;;17.55;;
66739;SDS011;53653;52.188;8.602;2023-04-29T02:18:43;51.22;;;18.42;;
66739;SDS011;53653;52.188;8.602;2023-04-29T02:21:09;50.30;;;19.27;;
66739;SDS011;53653;52.188;8.602;2023-04-29T02:23:36;46.05;;;18.40;;
66739;SDS011;53653;52.188;8.602;2023-04-29T02:26:02;48.57;;;18.43;;
66739;SDS011;53653;52.188;8.602;2023-04-29T02:28:34;47.13;;;17.67;;
66739;SDS011;53653;52.188;8.602;2023-04-29T02:31:02;43.97;;;17.23;;
66739;SDS011;53653;52.188;8.602;2023-04-29T02:33:28;45.80;;;18.90;;
66739;SDS011;53653;52.188;8.602;2023-04-29T02:35:54;48.57;;;19.43;;
66739;SDS011;53653;52.188;8.602;2023-04-29T02:38:21;48.95;;;19.13;;
66739;SDS011;53653;52.188;8.602;2023-04-29T02:40:46;48.53;;;20.57;;
66739;SDS011;53653;52.188;8.602;2023-04-29T02:43:15;45.20;;;18.83;;
66739;SDS011;53653;52.188;8.602;2023-04-29T02:45:40;48.20;;;18.80;;
66739;SDS011;53653;52.188;8.602;2023-04-29T02:48:06;46.55;;;18.63;;
66739;SDS011;53653;52.188;8.602;2023-04-29T02:50:32;51.33;;;20.08;;
66739;SDS011;53653;52.188;8.602;2023-04-29T02:52:58;50.20;;;20.17;;
66739;SDS011;53653;52.188;8.602;2023-04-29T02:55:24;48.45;;;18.38;;
66739;SDS011;53653;52.188;8.602;2023-04-29T02:57:49;45.03;;;19.77;;
66739;SDS011;53653;52.188;8.602;2023-04-29T03:00:15;49.55;;;19.58;;
66739;SDS011;53653;52.188;8.602;2023-04-29T03:02:40;47.17;;;19.10;;
66739;SDS011;53653;52.188;8.602;2023-04-29T03:05:06;46.30;;;19.33;;
66739;SDS011;53653;52.188;8.602;2023-04-29T03:07:32;47.38;;;18.40;;
66739;SDS011;53653;52.188;8.602;2023-04-29T03:09:57;45.00;;;19.67;;
66739;SDS011;53653;52.188;8.602;2023-04-29T03:12:23;49.83;;;20.77;;
66739;SDS011;53653;52.188;8.602;2023-04-29T03:14:49;48.43;;;20.17;;
66739;SDS011;53653;52.188;8.602;2023-04-29T03:17:16;48.45;;;20.73;;
66739;SDS011;53653;52.188;8.602;2023-04-29T03:19:41;49.65;;;21.85;;
66739;SDS011;53653;52.188;8.602;2023-04-29T03:22:07;52.40;;;21.73;;
66739;SDS011;53653;52.188;8.602;2023-04-29T03:24:36;51.50;;;21.98;;
66739;SDS011;53653;52.188;8.602;2023-04-29T03:27:02;48.55;;;21.83;;
66739;SDS011;53653;52.188;8.602;2023-04-29T03:29:28;42.03;;;19.00;;
66739;SDS011;53653;52.188;8.602;2023-04-29T03:31:55;49.97;;;21.17;;
66739;SDS011;53653;52.188;8.602;2023-04-29T03:34:21;44.67;;;19.57;;
66739;SDS011;53653;52.188;8.602;2023-04-29T03:36:59;39.95;;;19.05;;
66739;SDS011;53653;52.188;8.602;2023-04-29T03:39:26;45.35;;;19.92;;
66739;SDS011;53653;52.188;8.602;2023-04-29T03:41:56;46.05;;;20.30;;
66739;SDS011;53653;52.188;8.602;2023-04-29T03:44:22;50.28;;;22.10;;
66739;SDS011;53653;52.188;8.602;2023-04-29T03:46:48;45.83;;;20.70;;
66739;SDS011;53653;52.188;8.602;2023-04-29T03:49:13;46.77;;;21.93;;
66739;SDS011;53653;52.188;8.602;2023-04-29T03:51:41;46.28;;;20.52;;
66739;SDS011;53653;52.188;8.602;2023-04-29T03:54:13;46.90;;;20.60;;
66739;SDS011;53653;52.188;8.602;2023-04-29T03:56:38;48.77;;;20.07;;
66739;SDS011;53653;52.188;8.602;2023-04-29T03:59:06;49.50;;;21.20;;
66739;SDS011;53653;52.188;8.602;2023-04-29T04:01:32;48.17;;;20.93;;
66739;SDS011;53653;52.188;8.602;2023-04-29T04:03:57;52.38;;;23.02;;
66739;SDS011;53653;52.188;8.602;2023-04-29T04:06:23;50.83;;;21.60;;
66739;SDS011;53653;52.188;8.602;2023-04-29T04:08:50;46.35;;;19.95;;
66739;SDS011;53653;52.188;8.602;2023-04-29T04:11:19;49.33;;;21.17;;
66739;SDS011;53653;52.188;8.602;2023-04-29T04:13:53;50.73;;;22.53;;
66739;SDS011;53653;52.188;8.602;2023-04-29T04:16:19;50.05;;;22.13;;
66739;SDS011;53653;52.188;8.602;2023-04-29T04:18:44;52.47;;;22.53;;
66739;SDS011;53653;52.188;8.602;2023-04-29T04:21:10;47.03;;;22.00;;
66739;SDS011;53653;52.188;8.602;2023-04-29T04:23:38;45.70;;;21.65;;
66739;SDS011;53653;52.188;8.602;2023-04-29T04:26:06;53.33;;;22.70;;
66739;SDS011;53653;52.188;8.602;2023-04-29T04:28:52;51.40;;;23.52;;
66739;SDS011;53653;52.188;8.602;2023-04-29T04:31:26;50.20;;;21.95;;
66739;SDS011;53653;52.188;8.602;2023-04-29T04:33:52;51.97;;;20.98;;
66739;SDS011;53653;52.188;8.602;2023-04-29T04:36:18;48.87;;;22.67;;
66739;SDS011;53653;52.188;8.602;2023-04-29T04:38:44;48.88;;;21.83;;
66739;SDS011;53653;52.188;8.602;2023-04-29T04:41:11;49.53;;;21.50;;
66739;SDS011;53653;52.188;8.602;2023-04-29T04:43:37;50.25;;;21.90;;
66739;SDS011;53653;52.188;8.602;2023-04-29T04:46:09;50.23;;;21.93;;
66739;SDS011;53653;52.188;8.602;2023-04-29T04:48:39;49.85;;;21.58;;
66739;SDS011;53653;52.188;8.602;2023-04-29T04:51:11;47.38;;;21.95;;
66739;SDS011;53653;52.188;8.602;2023-04-29T04:53:38;49.30;;;22.10;;
66739;SDS011;53653;52.188;8.602;2023-04-29T04:56:08;51.53;;;22.10;;
66739;SDS011;53653;52.188;8.602;2023-04-29T04:58:35;54.70;;;22.80;;
66739;SDS011;53653;52.188;8.602;2023-04-29T05:01:00;52.33;;;23.17;;
66739;SDS011;53653;52.188;8.602;2023-04-29T05:03:26;51.27;;;21.90;;
66739;SDS011;53653;52.188;8.602;2023-04-29T05:05:56;49.13;;;22.03;;
66739;SDS011;53653;52.188;8.602;2023-04-29T05:08:23;51.08;;;22.25;;
66739;SDS011;53653;52.188;8.602;2023-04-29T05:10:50;50.35;;;22.45;;
66739;SDS011;53653;52.188;8.602;2023-04-29T05:13:16;52.75;;;22.80;;
66739;SDS011;53653;52.188;8.602;2023-04-29T05:15:43;53.87;;;23.63;;
66739;SDS011;53653;52.188;8.602;2023-04-29T05:18:09;54.17;;;21.13;;
66739;SDS011;53653;52.188;8.602;2023-04-29T05:20:35;55.45;;;24.45;;
66739;SDS011;53653;52.188;8.602;2023-04-29T05:23:01;57.70;;;24.50;;
66739;SDS011;53653;52.188;8.602;2023-04-29T05:25:30;61.17;;;24.60;;
66739;SDS011;53653;52.188;8.602;2023-04-29T05:27:58;56.90;;;25.50;;
66739;SDS011;53653;52.188;8.602;2023-04-29T05:30:27;63.03;;;25.95;;
66739;SDS011;53653;52.188;8.602;2023-04-29T05:32:53;67.53;;;26.70;;
66739;SDS011;53653;52.188;8.602;2023-04-29T05:35:20;60.73;;;25.23;;
66739;SDS011;53653;52.188;8.602;2023-04-29T05:37:46;60.42;;;25.65;;
66739;SDS011;53653;52.188;8.602;2023-04-29T05:40:37;56.63;;;24.23;;
66739;SDS011;53653;52.188;8.602;2023-04-29T05:43:31;62.88;;;25.40;;
66739;SDS011;53653;52.188;8.602;2023-04-29T05:45:57;64.60;;;26.83;;
66739;SDS011;53653;52.188;8.602;2023-04-29T05:48:22;61.40;;;24.77;;
66739;SDS011;53653;52.188;8.602;2023-04-29T05:50:49;59.53;;;25.65;;
66739;SDS011;53653;52.188;8.602;2023-04-29T05:53:15;61.08;;;26.63;;
66739;SDS011;53653;52.188;8.602;2023-04-29T05:56:10;62.65;;;27.52;;
66739;SDS011;53653;52.188;8.602;2023-04-29T05:58:37;63.47;;;28.40;;
66739;SDS011;53653;52.188;8.602;2023-04-29T06:01:02;66.25;;;26.80;;
66739;SDS011;53653;52.188;8.602;2023-04-29T06:03:29;70.85;;;29.65;;
66739;SDS011;53653;52.188;8.602;2023-04-29T06:06:33;64.75;;;28.13;;
66739;SDS011;53653;52.188;8.602;2023-04-29T06:09:15;66.67;;;29.10;;
66739;SDS011;53653;52.188;8.602;2023-04-29T06:11:42;64.05;;;26.80;;
66739;SDS011;53653;52.188;8.602;2023-04-29T06:14:09;65.05;;;27.60;;
66739;SDS011;53653;52.188;8.602;2023-04-29T06:16:35;64.30;;;28.48;;
66739;SDS011;53653;52.188;8.602;2023-04-29T06:19:01;61.87;;;27.10;;
66739;SDS011;53653;52.188;8.602;2023-04-29T06:21:27;60.28;;;26.33;;
66739;SDS011;53653;52.188;8.602;2023-04-29T06:23:53;64.10;;;27.40;;
66739;SDS011;53653;52.188;8.602;2023-04-29T06:26:19;64.05;;;27.85;;
66739;SDS011;53653;52.188;8.602;2023-04-29T06:28:46;62.22;;;27.48;;
66739;SDS011;53653;52.188;8.602;2023-04-29T06:31:11;63.17;;;27.10;;
66739;SDS011;53653;52.188;8.602;2023-04-29T06:33:37;68.55;;;28.45;;
66739;SDS011;53653;52.188;8.602;2023-04-29T06:36:04;62.38;;;27.27;;
66739;SDS011;53653;52.188;8.602;2023-04-29T06:38:42;72.72;;;29.27;;
66739;SDS011;53653;52.188;8.602;2023-04-29T06:41:30;61.40;;;27.70;;
66739;SDS011;53653;52.188;8.602;2023-04-29T06:44:15;63.63;;;27.37;;
66739;SDS011;53653;52.188;8.602;2023-04-29T06:47:01;61.35;;;25.83;;
66739;SDS011;53653;52.188;8.602;2023-04-29T06:49:49;63.83;;;27.30;;
66739;SDS011;53653;52.188;8.602;2023-04-29T06:52:15;62.37;;;28.33;;
66739;SDS011;53653;52.188;8.602;2023-04-29T06:54:41;60.77;;;26.93;;
66739;SDS011;53653;52.188;8.602;2023-04-29T06:57:07;58.60;;;27.65;;
66739;SDS011;53653;52.188;8.602;2023-04-29T06:59:32;60.13;;;26.00;;
66739;SDS011;53653;52.188;8.602;2023-04-29T07:01:58;64.30;;;28.07;;
66739;SDS011;53653;52.188;8.602;2023-04-29T07:04:23;58.10;;;27.05;;
66739;SDS011;53653;52.188;8.602;2023-04-29T07:06:49;56.90;;;25.13;;
66739;SDS011;53653;52.188;8.602;2023-04-29T07:09:15;58.40;;;26.67;;
66739;SDS011;53653;52.188;8.602;2023-04-29T07:11:41;61.40;;;28.33;;
66739;SDS011;53653;52.188;8.602;2023-04-29T07:14:07;55.13;;;27.17;;
66739;SDS011;53653;52.188;8.602;2023-04-29T07:16:36;65.00;;;29.73;;
66739;SDS011;53653;52.188;8.602;2023-04-29T07:19:01;66.47;;;28.97;;
66739;SDS011;53653;52.188;8.602;2023-04-29T07:21:27;59.60;;;27.83;;
66739;SDS011;53653;52.188;8.602;2023-04-29T07:23:52;63.45;;;28.45;;
66739;SDS011;53653;52.188;8.602;2023-04-29T07:26:19;66.68;;;29.77;;
66739;SDS011;53653;52.188;8.602;2023-04-29T07:28:46;62.77;;;27.93;;
66739;SDS011;53653;52.188;8.602;2023-04-29T07:31:13;65.35;;;29.10;;
66739;SDS011;53653;52.188;8.602;2023-04-29T07:33:38;64.97;;;29.93;;
66739;SDS011;53653;52.188;8.602;2023-04-29T07:36:04;60.25;;;28.55;;
66739;SDS011;53653;52.188;8.602;2023-04-29T07:38:31;68.25;;;30.98;;
66739;SDS011;53653;52.188;8.602;2023-04-29T07:40:57;60.50;;;28.97;;
66739;SDS011;53653;52.188;8.602;2023-04-29T07:43:23;66.45;;;30.27;;
66739;SDS011;53653;52.188;8.602;2023-04-29T07:45:49;62.77;;;30.00;;
66739;SDS011;53653;52.188;8.602;2023-04-29T07:48:14;57.38;;;27.77;;
66739;SDS011;53653;52.188;8.602;2023-04-29T07:50:39;59.17;;;26.87;;
66739;SDS011;53653;52.188;8.602;2023-04-29T07:53:05;52.07;;;25.00;;
66739;SDS011;53653;52.188;8.602;2023-04-29T07:55:31;61.00;;;28.58;;
66739;SDS011;53653;52.188;8.602;2023-04-29T07:57:58;58.03;;;28.70;;
66739;SDS011;53653;52.188;8.602;2023-04-29T08:00:24;60.93;;;28.00;;
66739;SDS011;53653;52.188;8.602;2023-04-29T08:02:52;57.17;;;28.50;;
66739;SDS011;53653;52.188;8.602;2023-04-29T08:05:20;49.28;;;24.75;;
66739;SDS011;53653;52.188;8.602;2023-04-29T08:07:46;46.17;;;24.67;;
66739;SDS011;53653;52.188;8.602;2023-04-29T08:10:13;52.67;;;25.20;;
66739;SDS011;53653;52.188;8.602;2023-04-29T08:12:39;47.38;;;25.55;;
66739;SDS011;53653;52.188;8.602;2023-04-29T08:15:06;47.83;;;23.27;;
66739;SDS011;53653;52.188;8.602;2023-04-29T08:17:32;46.10;;;23.13;;
66739;SDS011;53653;52.188;8.602;2023-04-29T08:19:58;43.10;;;21.95;;
66739;SDS011;53653;52.188;8.602;2023-04-29T08:22:23;43.67;;;23.83;;
66739;SDS011;53653;52.188;8.602;2023-04-29T08:24:49;43.88;;;22.23;;
66739;SDS011;53653;52.188;8.602;2023-04-29T08:27:15;44.43;;;23.10;;
66739;SDS011;53653;52.188;8.602;2023-04-29T08:29:41;44.35;;;23.15;;
66739;SDS011;53653;52.188;8.602;2023-04-29T08:32:06;44.07;;;23.17;;
66739;SDS011;53653;52.188;8.602;2023-04-29T08:34:32;45.45;;;24.20;;
66739;SDS011;53653;52.188;8.602;2023-04-29T08:36:58;41.17;;;21.87;;
66739;SDS011;53653;52.188;8.602;2023-04-29T08:39:23;37.60;;;21.52;;
66739;SDS011;53653;52.188;8.602;2023-04-29T08:41:50;45.03;;;21.38;;
66739;SDS011;53653;52.188;8.602;2023-04-29T08:44:16;41.53;;;21.20;;
66739;SDS011;53653;52.188;8.602;2023-04-29T08:46:45;40.30;;;22.38;;
66739;SDS011;53653;52.188;8.602;2023-04-29T08:49:10;39.20;;;21.60;;
66739;SDS011;53653;52.188;8.602;2023-04-29T08:51:37;36.15;;;19.73;;
66739;SDS011;53653;52.188;8.602;2023-04-29T08:54:03;37.93;;;20.30;;
66739;SDS011;53653;52.188;8.602;2023-04-29T08:56:29;35.80;;;20.57;;
66739;SDS011;53653;52.188;8.602;2023-04-29T08:58:55;33.85;;;19.60;;
66739;SDS011;53653;52.188;8.602;2023-04-29T09:01:24;37.50;;;20.40;;
66739;SDS011;53653;52.188;8.602;2023-04-29T09:06:18;35.97;;;19.83;;
66739;SDS011;53653;52.188;8.602;2023-04-29T09:08:45;38.35;;;19.75;;
66739;SDS011;53653;52.188;8.602;2023-04-29T09:11:11;35.27;;;19.30;;
66739;SDS011;53653;52.188;8.602;2023-04-29T09:13:37;33.20;;;18.73;;
66739;SDS011;53653;52.188;8.602;2023-04-29T09:16:03;34.07;;;18.30;;
66739;SDS011;53653;52.188;8.602;2023-04-29T09:18:49;38.33;;;20.88;;
66739;SDS011;53653;52.188;8.602;2023-04-29T09:23:55;36.95;;;18.90;;
66739;SDS011;53653;52.188;8.602;2023-04-29T09:26:22;33.95;;;18.45;;
66739;SDS011;53653;52.188;8.602;2023-04-29T09:29:04;35.20;;;18.23;;
66739;SDS011;53653;52.188;8.602;2023-04-29T09:31:33;28.00;;;13.38;;
66739;SDS011;53653;52.188;8.602;2023-04-29T09:33:59;30.20;;;16.83;;
66739;SDS011;53653;52.188;8.602;2023-04-29T09:39:09;30.98;;;17.35;;
66739;SDS011;53653;52.188;8.602;2023-04-29T09:41:37;30.35;;;16.90;;
66739;SDS011;53653;52.188;8.602;2023-04-29T09:44:03;29.60;;;17.08;;
66739;SDS011;53653;52.188;8.602;2023-04-29T09:46:31;35.28;;;19.33;;
66739;SDS011;53653;52.188;8.602;2023-04-29T09:48:57;33.83;;;19.17;;
66739;SDS011;53653;52.188;8.602;2023-04-29T09:51:23;34.08;;;19.08;;
66739;SDS011;53653;52.188;8.602;2023-04-29T09:53:49;28.80;;;15.45;;
66739;SDS011;53653;52.188;8.602;2023-04-29T09:56:14;31.03;;;17.67;;
66739;SDS011;53653;52.188;8.602;2023-04-29T09:58:40;29.65;;;16.98;;
66739;SDS011;53653;52.188;8.602;2023-04-29T10:01:06;22.47;;;12.63;;
66739;SDS011;53653;52.188;8.602;2023-04-29T10:03:33;28.50;;;15.05;;
66739;SDS011;53653;52.188;8.602;2023-04-29T10:05:59;25.02;;;13.45;;
66739;SDS011;53653;52.188;8.602;2023-04-29T10:08:26;27.50;;;14.65;;
66739;SDS011;53653;52.188;8.602;2023-04-29T10:10:53;28.27;;;16.47;;
66739;SDS011;53653;52.188;8.602;2023-04-29T10:13:23;32.63;;;17.42;;
66739;SDS011;53653;52.188;8.602;2023-04-29T10:16:07;34.63;;;19.02;;
66739;SDS011;53653;52.188;8.602;2023-04-29T10:18:40;26.17;;;13.75;;
66739;SDS011;53653;52.188;8.602;2023-04-29T10:21:13;29.73;;;15.82;;
66739;SDS011;53653;52.188;8.602;2023-04-29T10:23:38;25.10;;;14.50;;
66739;SDS011;53653;52.188;8.602;2023-04-29T10:26:07;30.98;;;15.90;;
66739;SDS011;53653;52.188;8.602;2023-04-29T10:28:36;30.70;;;15.37;;
66739;SDS011;53653;52.188;8.602;2023-04-29T10:31:04;25.70;;;14.32;;
66739;SDS011;53653;52.188;8.602;2023-04-29T10:33:31;24.00;;;12.52;;
66739;SDS011;53653;52.188;8.602;2023-04-29T10:36:00;28.63;;;15.20;;
66739;SDS011;53653;52.188;8.602;2023-04-29T10:38:35;30.00;;;15.20;;
66739;SDS011;53653;52.188;8.602;2023-04-29T10:41:21;26.03;;;14.63;;
66739;SDS011;53653;52.188;8.602;2023-04-29T10:43:52;26.67;;;12.70;;
66739;SDS011;53653;52.188;8.602;2023-04-29T10:46:19;29.08;;;14.13;;
66739;SDS011;53653;52.188;8.602;2023-04-29T10:48:50;25.48;;;13.85;;
66739;SDS011;53653;52.188;8.602;2023-04-29T10:51:34;23.83;;;10.98;;
66739;SDS011;53653;52.188;8.602;2023-04-29T10:59:08;22.92;;;11.68;;
66739;SDS011;53653;52.188;8.602;2023-04-29T11:04:10;26.92;;;13.23;;
66739;SDS011;53653;52.188;8.602;2023-04-29T11:12:01;24.70;;;13.50;;
66739;SDS011;53653;52.188;8.602;2023-04-29T11:14:30;23.55;;;13.30;;
66739;SDS011;53653;52.188;8.602;2023-04-29T11:16:57;24.10;;;13.20;;
66739;SDS011;53653;52.188;8.602;2023-04-29T11:19:30;19.03;;;10.20;;
66739;SDS011;53653;52.188;8.602;2023-04-29T11:22:07;22.35;;;12.98;;
66739;SDS011;53653;52.188;8.602;2023-04-29T11:24:35;23.10;;;12.68;;
66739;SDS011;53653;52.188;8.602;2023-04-29T11:27:01;20.40;;;12.30;;
66739;SDS011;53653;52.188;8.602;2023-04-29T11:29:30;17.33;;;11.07;;
66739;SDS011;53653;52.188;8.602;2023-04-29T11:31:58;21.30;;;12.17;;
66739;SDS011;53653;52.188;8.602;2023-04-29T11:34:24;24.92;;;12.90;;
66739;SDS011;53653;52.188;8.602;2023-04-29T11:36:50;21.05;;;12.65;;
66739;SDS011;53653;52.188;8.602;2023-04-29T11:39:16;20.07;;;11.57;;
66739;SDS011;53653;52.188;8.602;2023-04-29T11:41:41;18.65;;;9.82;;
66739;SDS011;53653;52.188;8.602;2023-04-29T11:44:07;20.13;;;11.43;;
66739;SDS011;53653;52.188;8.602;2023-04-29T11:46:34;24.25;;;12.00;;
66739;SDS011;53653;52.188;8.602;2023-04-29T11:49:00;21.40;;;12.27;;
66739;SDS011;53653;52.188;8.602;2023-04-29T11:51:25;20.73;;;12.67;;
66739;SDS011;53653;52.188;8.602;2023-04-29T11:53:52;22.98;;;12.32;;
66739;SDS011;53653;52.188;8.602;2023-04-29T11:56:21;21.77;;;12.98;;
66739;SDS011;53653;52.188;8.602;2023-04-29T11:58:57;19.17;;;11.03;;
66739;SDS011;53653;52.188;8.602;2023-04-29T12:01:24;22.45;;;12.13;;
66739;SDS011;53653;52.188;8.602;2023-04-29T12:03:50;23.63;;;13.90;;
66739;SDS011;53653;52.188;8.602;2023-04-29T12:06:16;19.87;;;12.60;;
66739;SDS011;53653;52.188;8.602;2023-04-29T12:08:41;26.33;;;14.40;;
66739;SDS011;53653;52.188;8.602;2023-04-29T12:11:07;23.80;;;14.53;;
66739;SDS011;53653;52.188;8.602;2023-04-29T12:13:33;21.10;;;13.73;;
66739;SDS011;53653;52.188;8.602;2023-04-29T12:16:02;21.63;;;13.27;;
66739;SDS011;53653;52.188;8.602;2023-04-29T12:18:29;25.17;;;14.23;;
66739;SDS011;53653;52.188;8.602;2023-04-29T12:20:55;24.20;;;13.20;;
66739;SDS011;53653;52.188;8.602;2023-04-29T12:23:24;25.52;;;14.27;;
66739;SDS011;53653;52.188;8.602;2023-04-29T12:25:54;22.35;;;11.23;;
66739;SDS011;53653;52.188;8.602;2023-04-29T12:28:20;24.97;;;13.13;;
66739;SDS011;53653;52.188;8.602;2023-04-29T12:30:47;21.77;;;12.95;;
66739;SDS011;53653;52.188;8.602;2023-04-29T12:33:25;21.55;;;12.60;;
66739;SDS011;53653;52.188;8.602;2023-04-29T12:35:56;21.67;;;12.40;;
66739;SDS011;53653;52.188;8.602;2023-04-29T12:38:23;19.58;;;11.00;;
66739;SDS011;53653;52.188;8.602;2023-04-29T12:40:54;18.90;;;10.47;;
66739;SDS011;53653;52.188;8.602;2023-04-29T12:43:27;18.73;;;9.90;;
66739;SDS011;53653;52.188;8.602;2023-04-29T12:45:53;15.15;;;9.55;;
66739;SDS011;53653;52.188;8.602;2023-04-29T12:48:28;19.15;;;10.20;;
66739;SDS011;53653;52.188;8.602;2023-04-29T12:50:55;17.55;;;9.73;;
66739;SDS011;53653;52.188;8.602;2023-04-29T12:53:22;18.23;;;9.40;;
66739;SDS011;53653;52.188;8.602;2023-04-29T12:55:48;17.88;;;9.88;;
66739;SDS011;53653;52.188;8.602;2023-04-29T12:58:14;15.82;;;9.52;;
66739;SDS011;53653;52.188;8.602;2023-04-29T13:00:39;16.87;;;9.67;;
66739;SDS011;53653;52.188;8.602;2023-04-29T13:03:05;17.38;;;9.10;;
66739;SDS011;53653;52.188;8.602;2023-04-29T13:05:31;19.63;;;10.57;;
66739;SDS011;53653;52.188;8.602;2023-04-29T13:07:57;19.83;;;10.35;;
66739;SDS011;53653;52.188;8.602;2023-04-29T13:10:23;17.77;;;9.90;;
66739;SDS011;53653;52.188;8.602;2023-04-29T13:12:48;17.27;;;9.10;;
66739;SDS011;53653;52.188;8.602;2023-04-29T13:15:13;17.10;;;9.67;;
66739;SDS011;53653;52.188;8.602;2023-04-29T13:17:39;16.30;;;8.97;;
66739;SDS011;53653;52.188;8.602;2023-04-29T13:20:05;15.10;;;8.23;;
66739;SDS011;53653;52.188;8.602;2023-04-29T13:22:32;14.68;;;8.90;;
66739;SDS011;53653;52.188;8.602;2023-04-29T13:24:57;15.27;;;8.65;;
66739;SDS011;53653;52.188;8.602;2023-04-29T13:27:23;14.53;;;8.60;;
66739;SDS011;53653;52.188;8.602;2023-04-29T13:29:49;13.90;;;8.27;;
66739;SDS011;53653;52.188;8.602;2023-04-29T13:32:14;11.13;;;7.13;;
66739;SDS011;53653;52.188;8.602;2023-04-29T13:35:27;13.45;;;7.32;;
66739;SDS011;53653;52.188;8.602;2023-04-29T13:37:52;13.20;;;6.47;;
66739;SDS011;53653;52.188;8.602;2023-04-29T13:40:18;12.73;;;6.33;;
66739;SDS011;53653;52.188;8.602;2023-04-29T13:42:43;15.60;;;6.30;;
66739;SDS011;53653;52.188;8.602;2023-04-29T13:45:09;14.27;;;7.03;;
66739;SDS011;53653;52.188;8.602;2023-04-29T13:47:35;16.33;;;6.27;;
66739;SDS011;53653;52.188;8.602;2023-04-29T13:50:01;11.90;;;6.45;;
66739;SDS011;53653;52.188;8.602;2023-04-29T13:52:26;13.85;;;6.05;;
66739;SDS011;53653;52.188;8.602;2023-04-29T13:54:54;13.63;;;6.40;;
66739;SDS011;53653;52.188;8.602;2023-04-29T13:57:20;14.43;;;6.55;;
66739;SDS011;53653;52.188;8.602;2023-04-29T13:59:45;12.40;;;6.30;;
66739;SDS011;53653;52.188;8.602;2023-04-29T14:02:12;13.10;;;6.57;;
66739;SDS011;53653;52.188;8.602;2023-04-29T14:04:38;14.30;;;6.80;;
66739;SDS011;53653;52.188;8.602;2023-04-29T14:07:03;11.03;;;6.17;;
66739;SDS011;53653;52.188;8.602;2023-04-29T14:09:29;9.82;;;4.68;;
66739;SDS011;53653;52.188;8.602;2023-04-29T14:11:55;10.68;;;4.60;;
66739;SDS011;53653;52.188;8.602;2023-04-29T14:14:21;11.77;;;5.67;;
66739;SDS011;53653;52.188;8.602;2023-04-29T14:16:46;11.60;;;5.17;;
66739;SDS011;53653;52.188;8.602;2023-04-29T14:19:12;11.23;;;5.30;;
66739;SDS011;53653;52.188;8.602;2023-04-29T14:21:37;13.73;;;6.30;;
66739;SDS011;53653;52.188;8.602;2023-04-29T14:24:03;12.17;;;6.63;;
66739;SDS011;53653;52.188;8.602;2023-04-29T14:26:28;11.10;;;6.03;;
66739;SDS011;53653;52.188;8.602;2023-04-29T14:28:55;13.75;;;6.85;;
66739;SDS011;53653;52.188;8.602;2023-04-29T14:33:49;11.73;;;5.90;;
66739;SDS011;53653;52.188;8.602;2023-04-29T14:36:15;12.80;;;6.50;;
66739;SDS011;53653;52.188;8.602;2023-04-29T14:38:41;11.77;;;6.68;;
66739;SDS011;53653;52.188;8.602;2023-04-29T14:41:06;12.10;;;6.63;;
66739;SDS011;53653;52.188;8.602;2023-04-29T14:43:32;12.90;;;5.78;;
66739;SDS011;53653;52.188;8.602;2023-04-29T14:45:59;10.20;;;5.80;;
66739;SDS011;53653;52.188;8.602;2023-04-29T14:48:24;9.37;;;5.23;;
66739;SDS011;53653;52.188;8.602;2023-04-29T14:50:50;9.23;;;4.25;;
66739;SDS011;53653;52.188;8.602;2023-04-29T14:53:15;11.77;;;5.03;;
66739;SDS011;53653;52.188;8.602;2023-04-29T14:55:41;10.37;;;4.40;;
66739;SDS011;53653;52.188;8.602;2023-04-29T14:58:07;10.10;;;4.68;;
66739;SDS011;53653;52.188;8.602;2023-04-29T15:00:34;12.85;;;4.55;;
66739;SDS011;53653;52.188;8.602;2023-04-29T15:03:00;9.40;;;4.53;;
66739;SDS011;53653;52.188;8.602;2023-04-29T15:05:26;10.25;;;4.45;;
66739;SDS011;53653;52.188;8.602;2023-04-29T15:07:51;13.32;;;4.47;;
66739;SDS011;53653;52.188;8.602;2023-04-29T15:10:17;9.27;;;4.43;;